Time;durP1;ratioP1;P1;durP2;ratioP2;P2;SDS_P1;SDS_P2;PMS_P1;PMS_P2;Temp;Humidity;BMP_temperature;BMP_pressure;BME280_temperature;BME280_humidity;BME280_pressure;Samples;Min_cycle;Max_cycle;Signal;HPM_P1;HPM_P2
2023/07/18 00:00:51;;;;;;;;;;;;;;;16.25;67.63;99663.50;5029062;28;4985;-78
2023/07/18 00:03:19;;;;;;;;;;;;;;;16.20;67.96;99660.00;5040692;28;5723;-76
2023/07/18 00:05:45;;;;;;;;;;;;;;;16.23;67.60;99664.88;5042086;28;5487;-77
2023/07/18 00:08:12;;;;;;;;;;;;;;;16.32;67.22;99665.91;5044032;28;5180;-75
2023/07/18 00:10:38;;;;;;;;;;;;;;;16.34;67.07;99669.97;5038412;28;5624;-76
2023/07/18 00:13:05;;;;;;;;;;;;;;;16.61;66.18;99670.66;5100710;27;6034;-78
2023/07/18 00:15:31;;;;;;;;;;;;;;;16.30;67.31;99670.84;5081032;28;4885;-76
2023/07/18 00:17:59;;;;;;;;;;;;;;;16.64;66.16;99673.63;5081266;28;5476;-77
2023/07/18 00:20:25;;;;;;;;;;;;;;;16.58;66.03;99672.03;5059562;28;5413;-76
2023/07/18 00:22:52;;;;;;;;;;;;;;;16.39;66.74;99681.94;5088590;28;5205;-77
2023/07/18 00:25:19;;;;;;;;;;;;;;;16.38;66.76;99672.16;5061317;28;5464;-74
2023/07/18 00:27:45;;;;;;;;;;;;;;;16.55;66.25;99670.69;5082625;28;6195;-75
2023/07/18 00:30:13;;;;;;;;;;;;;;;16.67;65.84;99670.34;5081572;28;5271;-76
2023/07/18 00:32:40;;;;;;;;;;;;;;;16.63;65.85;99676.66;5080584;28;5534;-77
2023/07/18 00:35:07;;;;;;;;;;;;;;;16.74;65.48;99672.78;5084827;28;5281;-76
2023/07/18 00:37:33;;;;;;;;;;;;;;;16.89;64.91;99678.13;5063842;28;5478;-76
2023/07/18 00:40:00;;;;;;;;;;;;;;;16.73;65.31;99680.09;5099151;27;5092;-76
2023/07/18 00:42:27;;;;;;;;;;;;;;;16.78;65.12;99677.38;5087381;28;5708;-76
2023/07/18 00:44:53;;;;;;;;;;;;;;;16.78;65.18;99676.56;5077000;28;5307;-77
2023/07/18 00:47:20;;;;;;;;;;;;;;;16.78;65.04;99673.84;5073938;28;5353;-76
2023/07/18 00:49:48;;;;;;;;;;;;;;;16.82;64.89;99676.81;5091547;28;6227;-75
2023/07/18 00:52:14;;;;;;;;;;;;;;;16.93;64.47;99673.75;5091722;28;5964;-75
2023/07/18 00:54:41;;;;;;;;;;;;;;;16.69;65.35;99673.59;5077942;28;5353;-77
2023/07/18 00:57:08;;;;;;;;;;;;;;;16.99;64.21;99685.41;5091602;28;5199;-75
2023/07/18 00:59:34;;;;;;;;;;;;;;;16.86;64.64;99683.34;5093980;28;5287;-75
2023/07/18 01:02:02;;;;;;;;;;;;;;;16.80;64.84;99675.19;5092458;28;6017;-75
2023/07/18 01:04:29;;;;;;;;;;;;;;;17.00;64.21;99682.41;5093628;28;6195;-76
2023/07/18 01:06:55;;;;;;;;;;;;;;;17.03;64.21;99689.19;5064217;28;5196;-77
2023/07/18 01:09:22;;;;;;;;;;;;;;;16.88;64.63;99690.09;5082410;28;5943;-75
2023/07/18 01:11:48;;;;;;;;;;;;;;;16.86;64.63;99695.03;5084353;28;5998;-76
2023/07/18 01:14:15;;;;;;;;;;;;;;;16.82;64.69;99687.69;5085363;28;5566;-76
2023/07/18 01:16:42;;;;;;;;;;;;;;;16.72;65.03;99685.81;5083928;27;5219;-75
2023/07/18 01:19:09;;;;;;;;;;;;;;;16.74;64.64;99681.75;5087291;27;5118;-78
2023/07/18 01:21:35;;;;;;;;;;;;;;;16.69;65.06;99689.09;5104616;27;5768;-77
2023/07/18 01:24:02;;;;;;;;;;;;;;;16.68;64.90;99687.50;5087296;27;6643;-76
2023/07/18 01:26:28;;;;;;;;;;;;;;;16.39;65.86;99690.09;5086402;27;5614;-76
2023/07/18 01:28:55;;;;;;;;;;;;;;;16.52;65.28;99684.03;5068213;28;5947;-74
2023/07/18 01:31:22;;;;;;;;;;;;;;;16.45;65.58;99684.34;5091823;27;5277;-76
2023/07/18 01:33:48;;;;;;;;;;;;;;;16.52;65.45;99687.56;5089092;27;5428;-77
2023/07/18 01:36:15;;;;;;;;;;;;;;;16.42;65.74;99692.25;5072517;27;4915;-78
2023/07/18 01:38:42;;;;;;;;;;;;;;;16.57;65.19;99689.44;5081814;27;5358;-76
2023/07/18 01:41:08;;;;;;;;;;;;;;;16.50;65.30;99689.75;5087888;27;5538;-77
2023/07/18 01:43:35;;;;;;;;;;;;;;;16.57;65.36;99690.25;5062258;28;5393;-79
2023/07/18 01:46:02;;;;;;;;;;;;;;;16.64;64.89;99694.56;5089189;27;5908;-77
2023/07/18 01:48:29;;;;;;;;;;;;;;;16.80;64.32;99693.44;5079478;27;5833;-77
2023/07/18 01:50:55;;;;;;;;;;;;;;;16.69;64.51;99700.78;5084506;27;5890;-75
2023/07/18 01:53:22;;;;;;;;;;;;;;;16.71;64.57;99708.69;5081572;27;6192;-75
2023/07/18 01:55:49;;;;;;;;;;;;;;;16.76;64.40;99703.22;5083940;27;5424;-77
2023/07/18 01:58:16;;;;;;;;;;;;;;;16.75;64.38;99699.66;5080652;28;5976;-76
2023/07/18 02:00:43;;;;;;;;;;;;;;;16.67;64.80;99696.72;5083805;27;5502;-75
2023/07/18 02:03:09;;;;;;;;;;;;;;;16.83;64.14;99709.19;5082190;27;5766;-77
2023/07/18 02:05:36;;;;;;;;;;;;;;;16.67;64.61;99696.72;5084387;27;6217;-78
2023/07/18 02:08:02;;;;;;;;;;;;;;;16.67;64.63;99704.88;5085442;27;6109;-76
2023/07/18 02:10:29;;;;;;;;;;;;;;;16.75;64.18;99704.28;5081168;28;5815;-77
2023/07/18 02:12:57;;;;;;;;;;;;;;;16.75;64.32;99701.56;5082609;27;5354;-77
2023/07/18 02:15:23;;;;;;;;;;;;;;;16.66;64.56;99714.13;5082663;27;5627;-79
2023/07/18 02:17:51;;;;;;;;;;;;;;;16.57;64.78;99706.56;5070190;27;6048;-78
2023/07/18 02:20:17;;;;;;;;;;;;;;;16.17;64.92;99660.56;5065325;27;5491;-76
2023/07/18 02:22:44;;;;;;;;;;;;;;;16.65;64.53;99712.50;5086404;27;5756;-77
2023/07/18 02:25:10;;;;;;;;;;;;;;;16.72;64.25;99716.53;5079550;27;6176;-80
2023/07/18 02:27:37;;;;;;;;;;;;;;;16.66;64.44;99712.22;5085085;27;5493;-77
2023/07/18 02:30:08;;;;;;;;;;;;;;;16.68;64.14;99717.41;5088365;28;5043;-78
2023/07/18 02:32:35;;;;;;;;;;;;;;;16.52;64.92;99709.31;5068121;27;5081;-78
2023/07/18 02:35:01;;;;;;;;;;;;;;;16.62;64.44;99711.19;5080517;27;5980;-76
2023/07/18 02:37:28;;;;;;;;;;;;;;;16.69;64.20;99713.56;5097881;27;5933;-76
2023/07/18 02:39:55;;;;;;;;;;;;;;;16.59;64.52;99711.75;5081565;27;5483;-77
2023/07/18 02:42:21;;;;;;;;;;;;;;;16.48;64.81;99713.69;5089528;27;5240;-76
2023/07/18 02:44:48;;;;;;;;;;;;;;;16.62;64.48;99703.03;5092181;27;5394;-76
2023/07/18 02:47:14;;;;;;;;;;;;;;;16.53;64.55;99708.22;5095398;28;6527;-75
2023/07/18 02:49:41;;;;;;;;;;;;;;;16.41;65.06;99718.59;5092916;27;5924;-75
2023/07/18 02:52:08;;;;;;;;;;;;;;;16.50;64.64;99716.09;5093451;28;5252;-74
2023/07/18 02:54:34;;;;;;;;;;;;;;;16.59;64.31;99706.31;5076532;28;6116;-75
2023/07/18 02:57:01;;;;;;;;;;;;;;;16.54;64.43;99718.00;5090217;28;5535;-76
2023/07/18 02:59:27;;;;;;;;;;;;;;;16.50;64.60;99716.94;5088107;28;5175;-75
2023/07/18 03:01:57;;;;;;;;;;;;;;;16.52;64.58;99722.88;5079154;27;6951;-79
2023/07/18 03:04:24;;;;;;;;;;;;;;;16.48;64.51;99721.84;5081895;28;5713;-77
2023/07/18 03:06:51;;;;;;;;;;;;;;;16.43;64.79;99724.56;5076766;27;5713;-75
2023/07/18 03:09:19;;;;;;;;;;;;;;;16.43;64.62;99726.47;5079212;27;5694;-80
2023/07/18 03:11:45;;;;;;;;;;;;;;;16.38;64.98;99729.22;5076820;27;5919;-77
2023/07/18 03:14:12;;;;;;;;;;;;;;;16.32;65.04;99725.69;5077356;27;5722;-77
2023/07/18 03:16:39;;;;;;;;;;;;;;;16.37;64.99;99722.16;5085118;27;5429;-76
2023/07/18 03:19:05;;;;;;;;;;;;;;;16.30;65.13;99730.63;5076925;27;5510;-78
2023/07/18 03:21:32;;;;;;;;;;;;;;;16.43;64.69;99731.91;5064963;28;5205;-77
2023/07/18 03:23:58;;;;;;;;;;;;;;;16.28;65.25;99730.88;5078114;28;5836;-77
2023/07/18 03:26:27;;;;;;;;;;;;;;;16.17;65.45;99733.91;5059481;27;6043;-77
2023/07/18 03:28:55;;;;;;;;;;;;;;;15.99;66.11;99732.59;5079143;27;5346;-75
2023/07/18 03:31:21;;;;;;;;;;;;;;;16.09;65.74;99733.41;5084295;27;5739;-77
2023/07/18 03:33:48;;;;;;;;;;;;;;;16.10;65.68;99731.47;5089062;28;5714;-76
2023/07/18 03:36:14;;;;;;;;;;;;;;;16.09;65.66;99732.59;5083828;27;5699;-77
2023/07/18 03:38:41;;;;;;;;;;;;;;;15.96;66.04;99725.00;5067482;28;5098;-76
2023/07/18 03:41:08;;;;;;;;;;;;;;;16.07;65.70;99726.59;5083922;27;5837;-78
2023/07/18 03:43:34;;;;;;;;;;;;;;;15.99;66.04;99733.41;5069551;28;5377;-75
2023/07/18 03:46:01;;;;;;;;;;;;;;;15.93;66.04;99730.97;5083248;27;5290;-74
2023/07/18 03:48:28;;;;;;;;;;;;;;;16.02;65.94;99735.56;5079722;27;5487;-76
2023/07/18 03:50:54;;;;;;;;;;;;;;;15.97;65.93;99740.19;5062900;27;5266;-76
2023/07/18 03:53:21;;;;;;;;;;;;;;;15.85;66.28;99743.19;5057319;28;5017;-77
2023/07/18 03:55:47;;;;;;;;;;;;;;;15.82;66.39;99747.28;5083092;27;5109;-78
2023/07/18 03:58:14;;;;;;;;;;;;;;;15.85;66.17;99740.50;5078225;28;5258;-76
2023/07/18 04:00:40;;;;;;;;;;;;;;;15.83;66.32;99743.50;5091322;27;5684;-75
2023/07/18 04:03:07;;;;;;;;;;;;;;;15.76;66.72;99750.28;5079901;27;5197;-74
2023/07/18 04:05:34;;;;;;;;;;;;;;;15.78;66.36;99743.50;5075314;28;5606;-75
2023/07/18 04:08:00;;;;;;;;;;;;;;;15.74;66.64;99755.19;5075829;28;5667;-75
2023/07/18 04:10:27;;;;;;;;;;;;;;;15.94;65.97;99748.88;5058065;28;5643;-74
2023/07/18 04:13:18;;;;;;;;;;;;;;;15.74;66.52;99750.56;5062921;28;6484;-77
2023/07/18 04:16:05;;;;;;;;;;;;;;;15.69;66.68;99745.13;5061921;28;6183;-75
2023/07/18 04:18:52;;;;;;;;;;;;;;;15.70;66.66;99751.38;5059686;28;5688;-76
2023/07/18 04:21:44;;;;;;;;;;;;;;;15.72;66.60;99751.94;5059271;28;5185;-79
2023/07/18 04:24:34;;;;;;;;;;;;;;;15.70;66.68;99759.50;5057163;28;5671;-77
2023/07/18 04:27:27;;;;;;;;;;;;;;;15.59;66.89;99754.06;5055236;28;5729;-77
2023/07/18 04:30:14;;;;;;;;;;;;;;;15.60;66.89;99747.56;5058036;28;6325;-76
2023/07/18 04:33:11;;;;;;;;;;;;;;;15.82;66.11;99747.28;5059811;28;5199;-78
2023/07/18 04:36:02;;;;;;;;;;;;;;;15.79;66.13;99758.69;5059260;28;6044;-78
2023/07/18 04:38:48;;;;;;;;;;;;;;;15.71;66.53;99753.03;5054931;28;5278;-77
2023/07/18 04:41:40;;;;;;;;;;;;;;;15.74;66.31;99756.00;5056859;28;5822;-77
2023/07/18 04:44:33;;;;;;;;;;;;;;;15.73;66.40;99753.53;5065255;28;5136;-77
2023/07/18 04:47:25;;;;;;;;;;;;;;;15.68;66.36;99754.38;5070293;28;5172;-77
2023/07/18 04:49:51;;;;;;;;;;;;;;;15.63;66.62;99766.00;5064495;28;5398;-78
2023/07/18 04:52:18;;;;;;;;;;;;;;;15.64;66.50;99755.97;5069139;28;5128;-76
2023/07/18 04:54:45;;;;;;;;;;;;;;;15.66;66.44;99751.06;5072148;28;5470;-75
2023/07/18 04:57:11;;;;;;;;;;;;;;;15.59;66.73;99759.50;5073002;28;5442;-74
2023/07/18 04:59:38;;;;;;;;;;;;;;;15.62;66.64;99758.16;5067737;28;5267;-76
2023/07/18 05:02:04;;;;;;;;;;;;;;;15.62;66.41;99764.38;5060633;28;5226;-77
2023/07/18 05:04:31;;;;;;;;;;;;;;;15.62;66.47;99758.97;5062687;28;5951;-76
2023/07/18 05:06:58;;;;;;;;;;;;;;;15.58;66.70;99765.19;5068223;28;5271;-77
2023/07/18 05:09:25;;;;;;;;;;;;;;;15.58;66.47;99774.13;5069558;28;5275;-77
2023/07/18 05:11:51;;;;;;;;;;;;;;;15.64;66.26;99764.09;5064371;28;5911;-77
2023/07/18 05:14:18;;;;;;;;;;;;;;;15.73;65.92;99769.81;5070771;28;6028;-79
2023/07/18 05:16:45;;;;;;;;;;;;;;;15.57;66.48;99769.81;5070220;28;6548;-78
2023/07/18 05:19:11;;;;;;;;;;;;;;;15.60;66.24;99769.25;5070220;28;5260;-76
2023/07/18 05:21:38;;;;;;;;;;;;;;;15.70;65.93;99768.47;5052193;28;5293;-76
2023/07/18 05:24:04;;;;;;;;;;;;;;;15.70;65.91;99773.09;5072819;28;5960;-78
2023/07/18 05:26:31;;;;;;;;;;;;;;;15.72;65.75;99766.31;5050865;28;5184;-76
2023/07/18 05:28:58;;;;;;;;;;;;;;;15.81;65.51;99772.81;5069160;28;6154;-79
2023/07/18 05:31:24;;;;;;;;;;;;;;;15.69;65.76;99772.28;5054283;28;6514;-76
2023/07/18 05:33:51;;;;;;;;;;;;;;;15.75;65.71;99783.94;5069680;28;5121;-78
2023/07/18 05:36:17;;;;;;;;;;;;;;;15.62;66.07;99785.28;5067434;28;5498;-77
2023/07/18 05:38:44;;;;;;;;;;;;;;;15.66;65.89;99792.59;5050605;28;5387;-78
2023/07/18 05:41:11;;;;;;;;;;;;;;;15.66;65.80;99791.78;5050131;28;6196;-78
2023/07/18 05:43:37;;;;;;;;;;;;;;;15.64;65.97;99791.25;5066739;28;5340;-77
2023/07/18 05:46:04;;;;;;;;;;;;;;;15.82;65.14;99798.84;5050361;28;6006;-78
2023/07/18 05:48:30;;;;;;;;;;;;;;;15.71;65.64;99801.88;5068816;28;4987;-78
2023/07/18 05:50:57;;;;;;;;;;;;;;;15.78;65.28;99797.78;5068703;28;5326;-76
2023/07/18 05:53:24;;;;;;;;;;;;;;;15.65;65.77;99801.03;5056819;28;5360;-78
2023/07/18 05:55:51;;;;;;;;;;;;;;;15.59;66.03;99805.63;5056293;28;5335;-75
2023/07/18 05:58:18;;;;;;;;;;;;;;;15.70;65.68;99805.66;5051111;28;6370;-77
2023/07/18 06:00:44;;;;;;;;;;;;;;;15.73;65.58;99803.22;5046098;28;5252;-79
2023/07/18 06:03:11;;;;;;;;;;;;;;;15.16;65.17;99712.00;5061786;28;5410;-78
2023/07/18 06:05:37;;;;;;;;;;;;;;;15.62;65.65;99802.38;5057357;28;5615;-79
2023/07/18 06:08:05;;;;;;;;;;;;;;;15.74;65.56;99806.75;5061142;28;5031;-78
2023/07/18 06:10:31;;;;;;;;;;;;;;;15.64;65.72;99804.81;5056065;28;6112;-75
2023/07/18 06:12:58;;;;;;;;;;;;;;;15.81;64.95;99802.66;5038043;28;5895;-77
2023/07/18 06:15:25;;;;;;;;;;;;;;;15.33;64.97;99736.97;5031911;28;6315;-79
2023/07/18 06:17:52;;;;;;;;;;;;;;;15.70;65.38;99811.09;5041824;28;5206;-76
2023/07/18 06:20:21;;;;;;;;;;;;;;;15.80;65.07;99808.38;5041689;28;5158;-78
2023/07/18 06:22:52;;;;;;;;;;;;;;;15.91;64.59;99804.56;5040472;28;5156;-77
2023/07/18 06:25:19;;;;;;;;;;;;;;;15.79;65.07;99809.47;5045410;28;5286;-75
2023/07/18 06:27:45;;;;;;;;;;;;;;;15.75;65.15;99811.09;5048424;28;5400;-77
2023/07/18 06:30:12;;;;;;;;;;;;;;;15.62;65.67;99810.53;5070562;28;5401;-79
2023/07/18 06:32:41;;;;;;;;;;;;;;;15.83;64.93;99805.94;5054857;28;5941;-77
2023/07/18 06:35:08;;;;;;;;;;;;;;;15.69;65.23;99809.47;5044216;28;5401;-78
2023/07/18 06:37:34;;;;;;;;;;;;;;;15.66;65.40;99811.59;5036624;28;6064;-76
2023/07/18 06:40:01;;;;;;;;;;;;;;;15.76;65.20;99812.72;5060326;28;5382;-77
2023/07/18 06:42:28;;;;;;;;;;;;;;;15.46;64.60;99749.19;5038861;28;5312;-76
2023/07/18 06:44:54;;;;;;;;;;;;;;;15.69;65.25;99821.13;5061355;28;5164;-78
2023/07/18 06:47:21;;;;;;;;;;;;;;;15.69;65.27;99813.00;5046509;28;5369;-77
2023/07/18 06:49:47;;;;;;;;;;;;;;;15.74;65.06;99812.19;5041975;28;5885;-76
2023/07/18 06:52:14;;;;;;;;;;;;;;;15.87;64.72;99827.94;5041269;28;5394;-77
2023/07/18 06:54:41;;;;;;;;;;;;;;;15.79;64.98;99823.03;5040973;28;6273;-78
2023/07/18 06:57:07;;;;;;;;;;;;;;;15.83;64.73;99816.00;5045142;28;6059;-76
2023/07/18 06:59:34;;;;;;;;;;;;;;;15.90;64.36;99820.03;5028281;28;5144;-74
2023/07/18 07:02:00;;;;;;;;;;;;;;;15.82;64.66;99830.63;5049069;28;6353;-75
2023/07/18 07:04:27;;;;;;;;;;;;;;;15.88;64.38;99833.09;5044797;28;5191;-77
2023/07/18 07:06:53;;;;;;;;;;;;;;;15.93;64.30;99831.44;5029002;28;6265;-77
2023/07/18 07:09:21;;;;;;;;;;;;;;;15.94;64.23;99838.50;5046251;28;5049;-79
2023/07/18 07:11:48;;;;;;;;;;;;;;;15.93;64.18;99829.53;5055364;28;5986;-79
2023/07/18 07:14:14;;;;;;;;;;;;;;;15.90;64.33;99827.38;5048157;28;5027;-74
2023/07/18 07:16:41;;;;;;;;;;;;;;;16.01;63.89;99836.34;5064088;28;4985;-77
2023/07/18 07:19:07;;;;;;;;;;;;;;;15.96;63.99;99834.44;5062563;28;5176;-78
2023/07/18 07:21:34;;;;;;;;;;;;;;;16.15;63.36;99831.16;5064799;28;5763;-79
2023/07/18 07:24:01;;;;;;;;;;;;;;;15.99;63.81;99842.03;5063095;28;5782;-76
2023/07/18 07:26:27;;;;;;;;;;;;;;;15.91;63.87;99837.13;5058872;28;5005;-77
2023/07/18 07:28:54;;;;;;;;;;;;;;;15.85;64.02;99841.78;5045024;28;5483;-79
2023/07/18 07:31:20;;;;;;;;;;;;;;;16.00;63.73;99848.28;5051853;28;5595;-76
2023/07/18 07:33:47;;;;;;;;;;;;;;;15.89;63.83;99842.88;5077623;28;5497;-76
2023/07/18 07:36:15;;;;;;;;;;;;;;;15.84;64.17;99845.56;5065584;28;2046;-78
2023/07/18 07:38:41;;;;;;;;;;;;;;;15.79;64.29;99847.47;5085823;28;5215;-76
2023/07/18 07:41:07;;;;;;;;;;;;;;;15.77;64.37;99855.91;5084611;28;2215;-77
2023/07/18 07:43:34;;;;;;;;;;;;;;;15.77;64.35;99852.38;5088954;28;2142;-77
2023/07/18 07:46:01;;;;;;;;;;;;;;;15.73;64.59;99852.06;5054018;28;6394;-78
2023/07/18 07:48:27;;;;;;;;;;;;;;;15.61;65.04;99859.63;5058548;28;6437;-77
2023/07/18 07:50:54;;;;;;;;;;;;;;;15.73;64.41;99852.06;5063023;28;5820;-77
2023/07/18 07:53:20;;;;;;;;;;;;;;;15.59;64.81;99853.69;5049245;28;5406;-78
2023/07/18 07:55:47;;;;;;;;;;;;;;;15.63;64.63;99855.56;5059246;28;5901;-76
2023/07/18 07:58:14;;;;;;;;;;;;;;;15.72;64.33;99853.16;5056508;28;5750;-79
2023/07/18 08:00:40;;;;;;;;;;;;;;;15.66;64.84;99851.50;5055271;28;5687;-78
2023/07/18 08:03:08;;;;;;;;;;;;;;;15.57;65.18;99855.84;5071445;28;5676;-77
2023/07/18 08:05:35;;;;;;;;;;;;;;;15.60;65.17;99860.72;5075366;28;5518;-78
2023/07/18 08:08:02;;;;;;;;;;;;;;;15.67;64.82;99851.25;5056498;28;5456;-78
2023/07/18 08:10:28;;;;;;;;;;;;;;;15.64;64.76;99853.66;5075530;28;5980;-75
2023/07/18 08:12:55;;;;;;;;;;;;;;;15.75;64.47;99858.06;5076999;28;5992;-77
2023/07/18 08:15:22;;;;;;;;;;;;;;;15.70;64.53;99855.34;5075945;28;6171;-77
2023/07/18 08:17:49;;;;;;;;;;;;;;;15.63;64.83;99857.47;5078423;28;5670;-78
2023/07/18 08:20:15;;;;;;;;;;;;;;;15.83;64.13;99854.81;5077689;28;5161;-78
2023/07/18 08:22:42;;;;;;;;;;;;;;;15.69;64.43;99855.63;5078085;28;6065;-77
2023/07/18 08:25:08;;;;;;;;;;;;;;;15.61;64.91;99857.72;5062718;28;5376;-78
2023/07/18 08:27:35;;;;;;;;;;;;;;;15.72;64.64;99857.78;5063292;28;6200;-76
2023/07/18 08:30:02;;;;;;;;;;;;;;;15.76;64.11;99853.44;5078867;28;5208;-76
2023/07/18 08:32:29;;;;;;;;;;;;;;;15.66;64.51;99852.31;5082759;28;5305;-75
2023/07/18 08:34:56;;;;;;;;;;;;;;;15.63;64.67;99855.56;5063051;28;5299;-79
2023/07/18 08:37:22;;;;;;;;;;;;;;;15.74;64.32;99853.72;5061827;28;5993;-78
2023/07/18 08:39:49;;;;;;;;;;;;;;;15.54;64.82;99853.66;5078503;28;5993;-76
2023/07/18 08:42:16;;;;;;;;;;;;;;;15.52;65.07;99845.78;5070294;28;5541;-78
2023/07/18 08:44:42;;;;;;;;;;;;;;;15.51;65.10;99854.22;5069317;28;6512;-80
2023/07/18 08:47:09;;;;;;;;;;;;;;;15.49;65.32;99856.38;5077150;28;5575;-78
2023/07/18 08:52:21;;;;;;;;;;;;;;;15.52;65.11;99855.84;5054309;28;5835;-79
2023/07/18 08:54:47;;;;;;;;;;;;;;;15.51;65.30;99856.94;5075131;28;5354;-76
2023/07/18 08:57:14;;;;;;;;;;;;;;;15.50;65.17;99864.25;5074522;28;5095;-77
2023/07/18 08:59:44;;;;;;;;;;;;;;;15.45;65.47;99861.53;5075308;28;5458;-78
2023/07/18 09:02:10;;;;;;;;;;;;;;;15.44;65.41;99860.72;5053766;28;6207;-78
2023/07/18 09:04:37;;;;;;;;;;;;;;;15.49;65.42;99859.09;5076867;28;5462;-76
2023/07/18 09:07:04;;;;;;;;;;;;;;;15.43;65.68;99860.97;5049873;28;5324;-77
2023/07/18 09:09:30;;;;;;;;;;;;;;;15.45;65.53;99867.75;5054480;28;5413;-76
2023/07/18 09:11:57;;;;;;;;;;;;;;;15.49;65.51;99864.50;5073451;28;6422;-79
2023/07/18 09:14:23;;;;;;;;;;;;;;;15.49;65.48;99861.78;5058602;28;5384;-75
2023/07/18 09:16:50;;;;;;;;;;;;;;;15.48;65.62;99858.28;5073726;28;5520;-76
2023/07/18 09:19:16;;;;;;;;;;;;;;;15.47;65.63;99855.81;5073653;28;5335;-76
2023/07/18 09:21:43;;;;;;;;;;;;;;;15.52;65.62;99847.69;5066370;28;6199;-77
2023/07/18 09:24:10;;;;;;;;;;;;;;;15.54;65.29;99851.75;5064153;28;5370;-77
2023/07/18 09:26:37;;;;;;;;;;;;;;;15.55;65.20;99858.00;5084436;28;5500;-78
2023/07/18 09:29:03;;;;;;;;;;;;;;;15.53;65.24;99855.56;5081078;28;5655;-76
2023/07/18 09:31:32;;;;;;;;;;;;;;;15.58;65.22;99852.84;5084212;28;5340;-75
2023/07/18 09:33:59;;;;;;;;;;;;;;;15.66;64.95;99855.03;5081115;28;5459;-75
2023/07/18 09:36:26;;;;;;;;;;;;;;;15.57;65.26;99847.69;5082769;28;5320;-76
2023/07/18 09:38:52;;;;;;;;;;;;;;;15.53;65.40;99843.88;5079865;28;6675;-76
2023/07/18 09:41:19;;;;;;;;;;;;;;;15.56;65.34;99852.31;5084113;28;5337;-75
2023/07/18 09:43:45;;;;;;;;;;;;;;;15.56;65.28;99852.31;5060180;28;5418;-75
2023/07/18 09:46:12;;;;;;;;;;;;;;;15.57;65.19;99858.56;5081913;28;5991;-78
2023/07/18 09:48:38;;;;;;;;;;;;;;;15.54;65.22;99853.66;5078040;28;5885;-78
2023/07/18 09:51:05;;;;;;;;;;;;;;;15.58;65.24;99849.31;5072786;28;5835;-75
2023/07/18 09:53:31;;;;;;;;;;;;;;;15.58;65.40;99852.84;5075773;28;5384;-76
2023/07/18 09:55:58;;;;;;;;;;;;;;;15.61;65.20;99844.16;5075726;28;5433;-77
2023/07/18 09:58:25;;;;;;;;;;;;;;;15.77;64.84;99853.19;5072697;28;5274;-75
2023/07/18 10:00:52;;;;;;;;;;;;;;;15.72;64.73;99852.38;5073114;28;5627;-77
2023/07/18 10:03:19;;;;;;;;;;;;;;;15.65;64.27;99850.69;5076325;28;5722;-76
2023/07/18 10:05:45;;;;;;;;;;;;;;;15.62;64.37;99845.00;5053287;28;5403;-76
2023/07/18 10:08:12;;;;;;;;;;;;;;;15.71;64.07;99850.75;5076801;28;4996;-76
2023/07/18 10:10:39;;;;;;;;;;;;;;;15.72;63.93;99850.47;5055076;28;5823;-76
2023/07/18 10:13:06;;;;;;;;;;;;;;;15.76;63.75;99842.56;5069418;28;5834;-76
2023/07/18 10:15:32;;;;;;;;;;;;;;;15.74;63.80;99837.44;5077407;28;6382;-76
2023/07/18 10:17:59;;;;;;;;;;;;;;;15.77;63.82;99844.22;5092598;27;5625;-75
2023/07/18 10:20:26;;;;;;;;;;;;;;;15.77;63.75;99838.78;5071631;28;5340;-77
2023/07/18 10:22:54;;;;;;;;;;;;;;;15.75;63.90;99843.69;5109700;27;5406;-76
2023/07/18 10:25:21;;;;;;;;;;;;;;;15.82;63.44;99842.31;5098953;27;5121;-77
2023/07/18 10:27:47;;;;;;;;;;;;;;;15.78;63.84;99838.50;5090826;27;6027;-77
2023/07/18 10:30:15;;;;;;;;;;;;;;;15.74;63.95;99837.44;5095687;27;5756;-77
2023/07/18 10:32:44;;;;;;;;;;;;;;;15.79;63.94;99839.31;5092606;27;5185;-77
2023/07/18 10:35:10;;;;;;;;;;;;;;;15.80;63.81;99849.94;5092253;28;5542;-76
2023/07/18 10:37:37;;;;;;;;;;;;;;;15.80;64.00;99841.78;5112722;27;5128;-78
2023/07/18 10:40:05;;;;;;;;;;;;;;;15.86;63.89;99834.44;5075627;28;5911;-76
2023/07/18 10:42:33;;;;;;;;;;;;;;;15.85;64.01;99828.22;5094999;27;5878;-76
2023/07/18 10:44:59;;;;;;;;;;;;;;;15.86;63.90;99835.25;5090299;27;5520;-76
2023/07/18 10:47:26;;;;;;;;;;;;;;;15.93;63.36;99847.75;5093446;28;5391;-78
2023/07/18 10:49:52;;;;;;;;;;;;;;;16.01;63.23;99839.06;5113539;27;6487;-76
2023/07/18 10:52:19;;;;;;;;;;;;;;;16.12;63.03;99840.69;5101773;28;5268;-76
2023/07/18 10:54:48;;;;;;;;;;;;;;;16.15;63.31;99833.88;5096992;28;5261;-76
2023/07/18 10:57:14;;;;;;;;;;;;;;;16.16;63.52;99838.22;5084026;28;5924;-78
2023/07/18 10:59:41;;;;;;;;;;;;;;;16.13;63.73;99837.69;5076424;28;5467;-75
2023/07/18 11:02:08;;;;;;;;;;;;;;;16.05;63.93;99831.97;5083065;27;5266;-77
2023/07/18 11:04:34;;;;;;;;;;;;;;;16.21;63.50;99830.88;5084841;28;5361;-75
2023/07/18 11:07:01;;;;;;;;;;;;;;;16.33;63.34;99822.44;5103355;28;5602;-77
2023/07/18 11:09:27;;;;;;;;;;;;;;;16.37;63.17;99819.97;5102798;28;5379;-77
2023/07/18 11:11:54;;;;;;;;;;;;;;;16.33;63.49;99819.72;5102117;28;5369;-77
2023/07/18 11:14:21;;;;;;;;;;;;;;;16.32;63.34;99828.94;5098370;27;5791;-74
2023/07/18 11:16:47;;;;;;;;;;;;;;;16.33;63.29;99819.72;5075683;28;5573;-78
2023/07/18 11:19:15;;;;;;;;;;;;;;;16.30;63.55;99820.28;5096318;27;5310;-78
2023/07/18 11:21:42;;;;;;;;;;;;;;;16.22;63.57;99824.34;5099237;27;5334;-77
2023/07/18 11:24:09;;;;;;;;;;;;;;;16.25;63.73;99823.81;5102527;27;5310;-78
2023/07/18 11:26:35;;;;;;;;;;;;;;;16.27;63.40;99823.53;5075019;28;6144;-77
2023/07/18 11:29:03;;;;;;;;;;;;;;;16.21;63.85;99828.16;5105148;28;5896;-77
2023/07/18 11:31:30;;;;;;;;;;;;;;;16.21;64.04;99830.06;5100820;27;5891;-79
2023/07/18 11:33:56;;;;;;;;;;;;;;;16.20;64.33;99821.09;5101894;28;5411;-79
2023/07/18 11:36:23;;;;;;;;;;;;;;;16.30;63.84;99820.28;5085258;28;5240;-80
2023/07/18 11:38:50;;;;;;;;;;;;;;;16.30;63.88;99818.38;5084271;28;6104;-79
2023/07/18 11:41:17;;;;;;;;;;;;;;;16.10;64.84;99811.06;5085335;28;5255;-75
2023/07/18 11:43:43;;;;;;;;;;;;;;;16.20;64.50;99807.50;5101529;28;5105;-80
2023/07/18 11:46:10;;;;;;;;;;;;;;;16.15;64.81;99812.13;5085203;28;5422;-76
2023/07/18 11:48:36;;;;;;;;;;;;;;;16.18;64.65;99804.28;5100774;27;5262;-77
2023/07/18 11:51:03;;;;;;;;;;;;;;;16.13;64.86;99802.38;5097520;28;5295;-76
2023/07/18 11:53:30;;;;;;;;;;;;;;;16.18;64.46;99806.16;5081952;28;5871;-77
2023/07/18 11:55:56;;;;;;;;;;;;;;;16.16;64.40;99806.44;5104947;28;5245;-77
2023/07/18 11:58:24;;;;;;;;;;;;;;;16.11;64.68;99807.25;5102837;28;5271;-79
2023/07/18 12:00:50;;;;;;;;;;;;;;;16.10;64.96;99805.63;5087448;28;4994;-78
2023/07/18 12:03:17;;;;;;;;;;;;;;;16.06;65.06;99809.16;5082016;28;5238;-80
2023/07/18 12:05:43;;;;;;;;;;;;;;;16.09;65.08;99806.72;5103509;28;5059;-78
2023/07/18 12:08:10;;;;;;;;;;;;;;;16.07;65.22;99806.19;5081802;28;5299;-77
2023/07/18 12:10:36;;;;;;;;;;;;;;;16.09;65.33;99811.34;5102231;28;5353;-77
2023/07/18 12:13:03;;;;;;;;;;;;;;;16.02;65.89;99802.66;5086273;28;5297;-78
2023/07/18 12:15:30;;;;;;;;;;;;;;;16.05;65.97;99807.53;5101880;28;5312;-79
2023/07/18 12:17:56;;;;;;;;;;;;;;;16.05;65.82;99802.91;5085337;28;5630;-77
2023/07/18 12:20:23;;;;;;;;;;;;;;;16.06;65.90;99811.88;5100264;28;5671;-80
2023/07/18 12:22:49;;;;;;;;;;;;;;;16.03;65.71;99794.25;5082933;28;5203;-79
2023/07/18 12:25:16;;;;;;;;;;;;;;;16.05;65.62;99800.19;5098761;28;5347;-78
2023/07/18 12:27:43;;;;;;;;;;;;;;;16.04;65.81;99801.28;5095657;28;5089;-79
2023/07/18 12:30:12;;;;;;;;;;;;;;;16.05;65.86;99794.75;5095623;28;5064;-77
2023/07/18 12:32:38;;;;;;;;;;;;;;;16.14;65.36;99795.03;5098446;28;5851;-76
2023/07/18 12:35:05;;;;;;;;;;;;;;;16.19;65.02;99802.38;5078973;28;5438;-76
2023/07/18 12:37:32;;;;;;;;;;;;;;;16.15;65.41;99793.13;5087535;28;5006;-79
2023/07/18 12:39:58;;;;;;;;;;;;;;;16.12;65.63;99800.75;5096781;28;5318;-78
2023/07/18 12:42:25;;;;;;;;;;;;;;;15.84;65.28;99749.72;5092900;28;5219;-78
2023/07/18 12:44:52;;;;;;;;;;;;;;;16.15;65.58;99804.81;5094340;28;5614;-76
2023/07/18 12:47:18;;;;;;;;;;;;;;;16.19;65.26;99797.75;5104587;27;5111;-82
2023/07/18 12:49:45;;;;;;;;;;;;;;;16.15;65.87;99798.56;5096433;28;5206;-78
2023/07/18 12:52:11;;;;;;;;;;;;;;;16.12;66.32;99787.16;5096982;28;5306;-75
2023/07/18 12:54:38;;;;;;;;;;;;;;;16.13;66.61;99796.94;5093268;28;5352;-79
2023/07/18 12:57:05;;;;;;;;;;;;;;;16.20;66.04;99799.34;5101208;28;6078;-78
2023/07/18 12:59:31;;;;;;;;;;;;;;;16.23;65.54;99795.28;5081814;28;5437;-80
2023/07/18 13:01:59;;;;;;;;;;;;;;;16.20;65.91;99788.50;5093440;28;5174;-79